Time;durP1;ratioP1;P1;durP2;ratioP2;P2;SDS_P1;SDS_P2;PMS_P1;PMS_P2;Temp;Humidity;BMP_temperature;BMP_pressure;BME280_temperature;BME280_humidity;BME280_pressure;Samples;Min_cycle;Max_cycle;Signal;HPM_P1;HPM_P2
2022/12/02 00:00:20;;;;;;;62.05;31.00;;;;;;;4.14;84.18;102529.22;5136284;27;20047;-71
2022/12/02 00:02:47;;;;;;;69.32;31.33;;;;;;;4.19;83.78;102527.63;5149854;27;20051;-72
2022/12/02 00:05:14;;;;;;;71.78;33.20;;;;;;;4.11;84.07;102518.75;5137464;27;20032;-71
2022/12/02 00:07:42;;;;;;;69.95;32.22;;;;;;;4.07;83.71;102519.50;5136287;27;20922;-71
2022/12/02 00:10:30;;;;;;;67.47;30.95;;;;;;;4.02;83.86;102517.66;5145958;27;20126;-71
2022/12/02 00:13:28;;;;;;;66.38;29.55;;;;;;;3.99;83.86;102519.31;5151933;27;20043;-69
2022/12/02 00:16:03;;;;;;;71.60;32.25;;;;;;;3.94;84.36;102513.97;5134827;27;20146;-69
2022/12/02 00:18:33;;;;;;;64.32;29.73;;;;;;;3.93;84.56;102513.94;5138239;27;20093;-68
2022/12/02 00:21:01;;;;;;;64.70;29.60;;;;;;;3.95;84.12;102507.91;5163319;27;20035;-69
2022/12/02 00:23:28;;;;;;;65.72;29.67;;;;;;;3.94;83.94;102508.75;5149575;27;20047;-70
2022/12/02 00:25:55;;;;;;;63.47;28.80;;;;;;;3.95;83.76;102507.91;5135860;27;20488;-68
2022/12/02 00:28:22;;;;;;;63.95;29.33;;;;;;;3.92;83.63;102507.84;5149590;27;20043;-70
2022/12/02 00:30:49;;;;;;;63.65;28.88;;;;;;;3.91;83.01;102502.59;5140573;27;20040;-71
2022/12/02 00:33:20;;;;;;;61.08;28.20;;;;;;;3.88;82.79;102503.41;5135652;27;20043;-67
2022/12/02 00:35:48;;;;;;;63.55;28.88;;;;;;;3.85;82.88;102503.31;5144114;27;20101;-70
2022/12/02 00:38:15;;;;;;;64.55;28.85;;;;;;;3.83;83.00;102503.31;5151260;27;20043;-71
2022/12/02 00:40:43;;;;;;;56.00;26.20;;;;;;;3.81;82.38;102499.75;5149183;27;20047;-70
2022/12/02 00:48:42;;;;;;;55.40;27.33;;;;;;;3.70;82.37;102498.63;5139110;27;20039;-69
2022/12/02 00:51:09;;;;;;;57.95;27.50;;;;;;;3.68;82.38;102502.91;5142855;27;20063;-68
2022/12/02 00:53:36;;;;;;;52.97;26.40;;;;;;;3.66;82.48;102502.00;5142964;27;20036;-68
2022/12/02 00:56:04;;;;;;;56.45;26.33;;;;;;;3.64;82.04;102503.69;5147867;27;20479;-69
2022/12/02 00:58:31;;;;;;;46.33;21.67;;;;;;;3.67;81.20;102502.03;5134903;27;20511;-69
2022/12/02 01:00:59;;;;;;;52.22;24.83;;;;;;;3.62;80.54;102497.53;5149884;27;20036;-69
2022/12/02 01:03:28;;;;;;;49.97;24.67;;;;;;;3.57;80.52;102498.31;5149612;27;20043;-69
2022/12/02 01:05:55;;;;;;;52.67;25.30;;;;;;;3.51;80.86;102494.69;5143099;27;20067;-69
2022/12/02 01:08:26;;;;;;;48.65;23.92;;;;;;;3.50;80.80;102495.53;5151588;27;20511;-69
2022/12/02 01:10:54;;;;;;;50.17;24.73;;;;;;;3.49;80.58;102498.97;5149641;27;20050;-69
2022/12/02 01:13:24;;;;;;;50.13;24.58;;;;;;;3.42;81.15;102490.97;5140572;27;20134;-69
2022/12/02 01:15:52;;;;;;;55.03;25.63;;;;;;;3.42;81.23;102490.97;5149089;27;20504;-69
2022/12/02 01:18:20;;;;;;;53.70;25.63;;;;;;;3.40;81.44;102483.97;5149004;27;20047;-70
2022/12/02 01:20:48;;;;;;;50.70;24.90;;;;;;;3.39;81.70;102485.69;5150754;27;20501;-70
2022/12/02 01:23:16;;;;;;;53.47;25.48;;;;;;;3.38;81.56;102485.63;5139203;27;20062;-70
2022/12/02 01:25:43;;;;;;;56.05;25.88;;;;;;;3.38;81.71;102490.84;5161947;27;20043;-70
2022/12/02 01:28:10;;;;;;;50.88;24.90;;;;;;;3.37;82.09;102483.88;5137671;27;20039;-71
2022/12/02 01:30:37;;;;;;;52.28;25.55;;;;;;;3.37;82.05;102479.56;5146031;27;20043;-71
2022/12/02 01:33:04;;;;;;;58.40;26.75;;;;;;;3.41;81.65;102483.13;5150663;27;20047;-71
2022/12/02 01:35:31;;;;;;;55.70;27.58;;;;;;;3.37;81.75;102484.75;5138777;27;20044;-71
2022/12/02 01:37:58;;;;;;;56.50;26.88;;;;;;;3.37;81.66;102482.16;5142369;27;20469;-71
2022/12/02 01:40:28;;;;;;;55.97;27.40;;;;;;;3.36;81.43;102484.72;5143252;27;20093;-71
2022/12/02 01:42:55;;;;;;;58.60;27.63;;;;;;;3.32;81.53;102483.75;5132139;27;20538;-71
2022/12/02 01:45:23;;;;;;;58.00;26.75;;;;;;;3.32;81.54;102490.69;5149486;27;20133;-71
2022/12/02 01:47:50;;;;;;;57.80;26.83;;;;;;;3.33;81.20;102488.13;5150550;27;20047;-71
2022/12/02 01:50:19;;;;;;;59.55;26.15;;;;;;;3.33;81.32;102489.88;5133981;27;20476;-69
2022/12/02 01:52:46;;;;;;;54.53;26.10;;;;;;;3.25;81.87;102487.94;5131755;27;20534;-69
2022/12/02 01:55:21;;;;;;;52.92;25.25;;;;;;;3.25;81.80;102485.34;5148997;27;20039;-69
2022/12/02 01:57:49;;;;;;;56.60;27.13;;;;;;;3.24;81.90;102482.66;5148781;27;20046;-70
2022/12/02 02:00:17;;;;;;;57.80;26.17;;;;;;;3.22;82.21;102479.13;5140761;27;20051;-69
2022/12/02 02:02:45;;;;;;;53.50;25.70;;;;;;;3.21;82.28;102480.88;5141218;27;20031;-69
2022/12/02 02:05:21;;;;;;;63.28;27.70;;;;;;;3.22;82.43;102484.34;5135781;27;20050;-69
2022/12/02 02:07:56;;;;;;;57.10;26.08;;;;;;;3.21;82.61;102490.41;5138042;27;20036;-69
2022/12/02 02:10:27;;;;;;;57.90;26.77;;;;;;;3.17;82.76;102479.00;5133807;27;20040;-70
2022/12/02 02:12:57;;;;;;;58.63;26.17;;;;;;;3.20;82.43;102476.50;5139839;27;20035;-67
2022/12/02 02:15:26;;;;;;;60.45;27.55;;;;;;;3.16;83.02;102478.97;5151033;27;20043;-67
2022/12/02 02:17:56;;;;;;;63.85;28.33;;;;;;;3.17;83.07;102471.19;5147951;27;20110;-67
2022/12/02 02:20:31;;;;;;;63.95;27.65;;;;;;;3.17;83.16;102471.19;5144745;27;20126;-67
2022/12/02 02:23:06;;;;;;;63.53;27.90;;;;;;;3.20;82.94;102473.03;5154406;27;20475;-67
2022/12/02 02:25:44;;;;;;;66.05;29.02;;;;;;;3.21;83.04;102472.16;5145613;27;20039;-67
2022/12/02 02:28:13;;;;;;;62.63;27.70;;;;;;;3.18;83.09;102464.28;5149195;27;20070;-68
2022/12/02 02:30:43;;;;;;;67.28;29.13;;;;;;;3.18;83.32;102469.50;5135430;27;20047;-68
2022/12/02 02:33:14;;;;;;;64.72;28.52;;;;;;;3.15;83.66;102462.47;5138660;27;20043;-68
2022/12/02 02:35:44;;;;;;;66.43;28.48;;;;;;;3.16;84.01;102455.53;5150948;27;20038;-69
2022/12/02 02:38:17;;;;;;;59.70;27.15;;;;;;;3.22;83.58;102455.69;5152169;27;20047;-68
2022/12/02 02:40:46;;;;;;;60.42;26.58;;;;;;;3.21;83.75;102457.41;5148257;27;20035;-68
2022/12/02 02:43:16;;;;;;;66.32;29.33;;;;;;;3.23;83.40;102458.34;5138662;27;20532;-67
2022/12/02 02:45:44;;;;;;;65.43;28.35;;;;;;;3.21;83.51;102457.41;5142189;27;20043;-70
2022/12/02 02:48:16;;;;;;;61.00;27.88;;;;;;;3.19;83.76;102453.00;5153165;27;20035;-70
2022/12/02 02:50:46;;;;;;;62.65;28.00;;;;;;;3.18;84.02;102453.84;5152730;27;20043;-70
2022/12/02 02:53:22;;;;;;;60.30;26.08;;;;;;;3.19;83.94;102456.47;5143199;27;20534;-70
2022/12/02 02:55:51;;;;;;;58.28;25.80;;;;;;;3.16;84.10;102468.56;5150363;27;20036;-70
2022/12/02 02:58:23;;;;;;;57.47;25.58;;;;;;;3.13;83.88;102447.63;5146632;27;20504;-70
2022/12/02 03:00:59;;;;;;;52.70;23.35;;;;;;;3.15;83.42;102443.34;5142885;27;20048;-70
2022/12/02 03:03:34;;;;;;;52.85;22.90;;;;;;;3.10;83.45;102440.59;5143478;27;20047;-69
2022/12/02 03:06:07;;;;;;;52.60;22.70;;;;;;;3.03;83.88;102455.19;5147930;27;20468;-70
2022/12/02 03:08:41;;;;;;;54.38;22.67;;;;;;;3.04;84.04;102443.06;5141824;27;20032;-70
2022/12/02 03:11:10;;;;;;;50.08;22.85;;;;;;;2.99;84.01;102440.34;5145114;27;20055;-71
2022/12/02 03:13:42;;;;;;;55.70;23.40;;;;;;;3.02;83.93;102448.22;5141554;27;20051;-70
2022/12/02 03:16:14;;;;;;;56.58;24.33;;;;;;;3.03;84.01;102436.09;5150681;27;20039;-71
2022/12/02 03:18:45;;;;;;;51.80;23.17;;;;;;;2.99;84.01;102435.13;5149793;27;20039;-71
2022/12/02 03:21:15;;;;;;;53.25;23.73;;;;;;;3.01;83.80;102432.56;5147003;27;20042;-71
2022/12/02 03:23:45;;;;;;;53.30;23.17;;;;;;;2.99;83.93;102427.31;5152522;27;20046;-71
2022/12/02 03:26:14;;;;;;;53.90;23.92;;;;;;;2.96;84.03;102435.03;5143525;27;20039;-71
2022/12/02 03:28:42;;;;;;;53.15;22.35;;;;;;;2.95;84.14;102428.94;5153122;27;20492;-71
2022/12/02 03:31:11;;;;;;;48.38;23.30;;;;;;;2.95;84.18;102425.44;5141713;27;20035;-71
2022/12/02 03:33:40;;;;;;;57.40;23.77;;;;;;;2.92;84.17;102414.94;5138403;27;20040;-71
2022/12/02 03:36:09;;;;;;;46.42;22.27;;;;;;;2.96;83.89;102419.41;5135165;27;20042;-69
2022/12/02 03:38:37;;;;;;;52.25;22.27;;;;;;;2.92;84.39;102415.84;5147970;27;20159;-67
2022/12/02 03:41:06;;;;;;;56.85;24.48;;;;;;;2.95;84.29;102415.91;5139348;27;20514;-68
2022/12/02 03:43:36;;;;;;;54.42;22.52;;;;;;;2.96;84.08;102422.00;5144534;27;20379;-70
2022/12/02 03:46:06;;;;;;;49.45;22.75;;;;;;;2.92;84.37;102410.63;5141080;27;20420;-70
2022/12/02 03:48:37;;;;;;;51.42;22.08;;;;;;;2.97;84.16;102407.25;5153086;27;20038;-70
2022/12/02 03:51:06;;;;;;;49.92;23.13;;;;;;;2.95;84.04;102415.03;5143644;27;20039;-71
2022/12/02 03:53:35;;;;;;;45.30;20.70;;;;;;;2.95;84.19;102408.06;5136465;27;20221;-68
2022/12/02 03:56:05;;;;;;;44.22;20.42;;;;;;;2.98;83.75;102409.91;5146536;27;20039;-71
2022/12/02 03:58:44;;;;;;;44.65;21.05;;;;;;;2.95;84.03;102407.22;5152310;27;20092;-71
2022/12/02 04:01:13;;;;;;;43.50;20.05;;;;;;;3.01;83.71;102401.28;5144860;27;20116;-71
2022/12/02 04:03:41;;;;;;;48.90;21.27;;;;;;;2.98;83.60;102396.88;5134697;27;20082;-71
2022/12/02 04:06:09;;;;;;;44.95;20.77;;;;;;;2.95;83.98;102405.47;5139165;27;20539;-70
2022/12/02 04:08:37;;;;;;;47.17;21.75;;;;;;;2.99;83.80;102403.88;5142192;27;20612;-71
2022/12/02 04:11:05;;;;;;;46.30;20.50;;;;;;;3.04;83.28;102411.78;5148664;27;20051;-70
2022/12/02 04:13:39;;;;;;;52.05;21.35;;;;;;;2.99;83.23;102406.47;5142696;27;20047;-71
2022/12/02 04:16:06;;;;;;;47.92;19.55;;;;;;;3.05;82.72;102398.78;5144902;27;20563;-70
2022/12/02 04:18:34;;;;;;;44.20;20.65;;;;;;;3.05;82.43;102403.13;5152834;27;20088;-69
2022/12/02 04:21:03;;;;;;;46.40;20.90;;;;;;;2.97;82.95;102400.31;5150377;27;20058;-69
2022/12/02 04:23:30;;;;;;;44.83;21.00;;;;;;;2.95;83.07;102402.00;5143756;27;20035;-70
2022/12/02 04:25:58;;;;;;;44.38;20.55;;;;;;;2.97;82.94;102400.31;5136574;27;20042;-70
2022/12/02 04:28:25;;;;;;;49.15;19.80;;;;;;;2.99;82.80;102397.75;5151157;27;20039;-70
2022/12/02 04:30:52;;;;;;;45.38;19.90;;;;;;;2.95;82.79;102389.84;5139925;27;20040;-69
2022/12/02 04:33:19;;;;;;;39.20;17.95;;;;;;;2.95;82.77;102383.75;5146026;27;20070;-70
2022/12/02 04:35:46;;;;;;;50.08;20.27;;;;;;;2.97;82.66;102397.72;5143126;27;20038;-70
2022/12/02 04:38:13;;;;;;;48.58;20.67;;;;;;;2.90;83.06;102382.78;5142029;27;20047;-68
2022/12/02 04:40:40;;;;;;;44.47;19.83;;;;;;;2.94;82.93;102379.38;5137065;27;20043;-69
2022/12/02 04:43:07;;;;;;;46.80;19.73;;;;;;;2.89;83.29;102379.28;5141416;27;20043;-68
2022/12/02 04:45:35;;;;;;;45.70;20.90;;;;;;;2.91;83.34;102377.59;5135369;27;20476;-69
2022/12/02 04:48:03;;;;;;;41.92;19.55;;;;;;;2.91;83.28;102382.81;5143565;27;20042;-69
2022/12/02 04:50:30;;;;;;;45.13;19.90;;;;;;;2.94;83.34;102382.91;5152204;27;20040;-69
2022/12/02 04:52:58;;;;;;;45.85;20.15;;;;;;;2.94;83.37;102377.69;5137523;27;20054;-69
2022/12/02 04:55:25;;;;;;;49.05;21.58;;;;;;;2.98;83.27;102376.03;5134955;27;20105;-69
2022/12/02 04:57:52;;;;;;;47.88;19.88;;;;;;;2.95;83.52;102379.41;5152156;27;20038;-71
2022/12/02 05:00:20;;;;;;;47.70;20.38;;;;;;;2.96;83.49;102367.28;5134836;27;20426;-70
2022/12/02 05:02:47;;;;;;;45.00;18.77;;;;;;;2.95;83.36;102361.19;5140086;27;20046;-70
2022/12/02 05:05:16;;;;;;;47.00;20.55;;;;;;;2.98;83.25;102369.94;5150749;27;20069;-70
2022/12/02 05:07:43;;;;;;;48.05;20.08;;;;;;;2.95;83.25;102365.53;5137647;27;20100;-69
2022/12/02 05:10:10;;;;;;;43.65;20.20;;;;;;;2.92;83.54;102368.03;5145406;27;20047;-69
2022/12/02 05:12:38;;;;;;;40.97;19.15;;;;;;;2.96;83.32;102359.47;5150288;27;20039;-69
2022/12/02 05:15:06;;;;;;;44.53;18.58;;;;;;;2.97;83.14;102361.25;5149147;27;20054;-69
2022/12/02 05:17:33;;;;;;;41.55;17.98;;;;;;;2.94;82.85;102354.25;5144682;27;20035;-69
2022/12/02 05:20:08;;;;;;;40.17;17.60;;;;;;;2.96;83.05;102354.25;5151151;27;20043;-69
2022/12/02 05:22:35;;;;;;;42.83;19.17;;;;;;;2.98;82.75;102360.41;5143747;27;20046;-68
2022/12/02 05:25:05;;;;;;;43.85;19.00;;;;;;;2.96;82.95;102356.88;5151420;27;20039;-68
2022/12/02 05:27:32;;;;;;;39.10;18.45;;;;;;;3.01;82.78;102355.25;5133987;27;20085;-67
2022/12/02 05:30:04;;;;;;;41.80;19.55;;;;;;;2.97;82.96;102345.63;5146924;27;20046;-68
2022/12/02 05:32:31;;;;;;;41.55;18.70;;;;;;;2.91;83.47;102343.72;5138914;27;20074;-69
2022/12/02 05:34:59;;;;;;;44.88;19.02;;;;;;;2.89;83.80;102350.63;5135281;27;20039;-70
2022/12/02 05:37:27;;;;;;;43.72;19.27;;;;;;;2.94;83.66;102349.03;5137219;27;20097;-70
2022/12/02 05:39:54;;;;;;;45.35;19.63;;;;;;;2.89;83.95;102344.53;5139623;27;20039;-69
2022/12/02 05:42:22;;;;;;;43.63;19.10;;;;;;;2.92;83.86;102357.63;5135412;27;20097;-69
2022/12/02 05:44:50;;;;;;;40.22;18.42;;;;;;;2.99;83.45;102358.66;5144450;27;20048;-68
2022/12/02 05:47:18;;;;;;;41.50;18.42;;;;;;;2.99;83.70;102361.28;5144974;27;20043;-67
2022/12/02 05:49:45;;;;;;;43.10;19.52;;;;;;;3.06;85.60;102356.25;5141494;27;20452;-67
2022/12/02 05:52:25;;;;;;;42.08;18.30;;;;;;;3.28;86.04;102348.97;5146711;27;20052;-67
2022/12/02 05:55:00;;;;;;;41.60;18.42;;;;;;;3.47;85.55;102350.28;5144623;27;20113;-66
2022/12/02 05:57:30;;;;;;;39.92;18.95;;;;;;;3.48;83.91;102348.56;5143388;27;20039;-68
2022/12/02 06:00:22;;;;;;;38.85;17.52;;;;;;;3.37;82.73;102343.09;5137800;27;20612;-68
2022/12/02 06:02:58;;;;;;;42.67;19.05;;;;;;;3.27;82.98;102344.59;5134050;27;20128;-68
2022/12/02 06:05:37;;;;;;;37.13;18.25;;;;;;;3.23;83.67;102347.97;5151480;27;20042;-68
2022/12/02 06:08:19;;;;;;;39.72;17.63;;;;;;;3.22;83.67;102343.59;5144485;27;20035;-68
2022/12/02 06:10:56;;;;;;;37.30;16.92;;;;;;;3.34;83.87;102345.63;5138952;27;20062;-68
2022/12/02 06:13:34;;;;;;;33.22;16.85;;;;;;;3.35;83.27;102335.22;5147405;27;20090;-68
2022/12/02 06:16:11;;;;;;;37.47;17.10;;;;;;;3.34;83.40;102337.81;5153423;27;20050;-68
2022/12/02 06:18:39;;;;;;;35.08;16.80;;;;;;;3.34;83.11;102346.50;5139843;27;20139;-68
2022/12/02 06:21:15;;;;;;;37.70;16.40;;;;;;;3.32;82.61;102350.78;5151932;27;20040;-69
2022/12/02 06:23:49;;;;;;;36.13;16.40;;;;;;;3.21;83.05;102345.34;5143360;27;20043;-68
2022/12/02 06:26:19;;;;;;;39.22;17.73;;;;;;;3.18;82.78;102347.00;5142175;27;20059;-68
2022/12/02 06:28:55;;;;;;;36.53;17.38;;;;;;;3.09;83.32;102342.41;5138138;27;20052;-68
2022/12/02 06:31:38;;;;;;;39.50;17.45;;;;;;;3.08;83.50;102346.75;5140220;27;20483;-68
2022/12/02 06:34:42;;;;;;;38.03;17.55;;;;;;;3.04;83.80;102350.13;5147931;27;20031;-68
2022/12/02 06:37:27;;;;;;;39.58;17.40;;;;;;;3.04;83.77;102350.13;5068148;28;22205;-68
2022/12/02 06:39:58;;;;;;;34.08;16.17;;;;;;;2.95;83.96;102345.56;5137455;27;20052;-68
2022/12/02 06:42:45;;;;;;;39.20;16.90;;;;;;;3.01;83.91;102347.44;5134016;27;20043;-68
2022/12/02 06:45:31;;;;;;;37.33;17.25;;;;;;;2.97;83.85;102342.09;5134546;27;20039;-68
2022/12/02 06:48:01;;;;;;;37.00;16.67;;;;;;;2.92;84.40;102344.59;5143243;27;20978;-68
2022/12/02 06:50:36;;;;;;;35.10;16.38;;;;;;;2.90;84.26;102341.09;5139903;27;20040;-68
2022/12/02 06:53:32;;;;;;;36.90;16.88;;;;;;;2.86;84.42;102334.03;5139236;27;20069;-69
2022/12/02 06:56:05;;;;;;;42.20;17.83;;;;;;;2.84;84.76;102338.31;5141593;27;20478;-68
2022/12/02 06:58:42;;;;;;;39.92;17.13;;;;;;;2.78;85.18;102334.72;5154746;27;20044;-68
2022/12/02 07:01:19;;;;;;;37.72;17.20;;;;;;;2.83;85.15;102337.44;5145141;27;20066;-69
2022/12/02 07:04:07;;;;;;;35.83;16.88;;;;;;;2.85;85.00;102329.66;5141938;27;20119;-69
2022/12/02 07:06:51;;;;;;;44.53;17.65;;;;;;;2.85;85.15;102340.09;5140532;27;20039;-69
2022/12/02 07:09:26;;;;;;;38.13;16.58;;;;;;;2.92;84.55;102336.78;5146336;27;20044;-68
2022/12/02 07:11:57;;;;;;;35.42;16.40;;;;;;;2.87;84.38;102341.00;5141444;27;20108;-68
2022/12/02 07:14:43;;;;;;;36.40;17.20;;;;;;;2.92;84.35;102348.09;5140203;27;20043;-68
2022/12/02 07:17:28;;;;;;;36.75;15.10;;;;;;;2.94;83.66;102349.03;5143963;27;20093;-67
2022/12/02 07:20:04;;;;;;;;;;;;;;;2.93;83.41;102344.66;5132883;27;20071;-68
2022/12/02 07:22:44;;;;;;;39.25;17.00;;;;;;;2.85;83.95;102348.75;5146603;27;19938;-68
2022/12/02 07:25:37;;;;;;;39.88;17.50;;;;;;;2.85;84.11;102353.09;5136287;27;20043;-68
2022/12/02 07:28:37;;;;;;;38.90;17.40;;;;;;;2.88;83.90;102356.66;5143681;27;20043;-70
2022/12/02 07:31:26;;;;;;;43.50;18.05;;;;;;;2.84;84.55;102359.16;5136665;27;20416;-69
2022/12/02 07:33:54;;;;;;;39.22;16.67;;;;;;;2.85;84.36;102359.19;5145184;27;20046;-68
2022/12/02 07:36:23;;;;;;;40.13;17.02;;;;;;;2.92;84.03;102357.63;5144078;27;20039;-68
2022/12/02 07:38:50;;;;;;;41.40;18.80;;;;;;;2.83;84.41;102357.38;5151148;27;20401;-68
2022/12/02 07:41:35;;;;;;;43.55;17.38;;;;;;;2.80;84.91;102353.84;5145593;27;20046;-69
2022/12/02 07:44:04;;;;;;;38.95;17.65;;;;;;;2.79;85.11;102359.94;5152220;27;20040;-69
2022/12/02 07:46:31;;;;;;;40.20;17.70;;;;;;;2.75;85.45;102360.69;5148041;27;20051;-68
2022/12/02 07:48:58;;;;;;;38.60;17.60;;;;;;;2.77;85.87;102360.72;5150838;27;20039;-68
2022/12/02 07:51:25;;;;;;;37.40;16.33;;;;;;;2.71;86.36;102366.63;5147386;27;20039;-69
2022/12/02 07:53:52;;;;;;;37.85;15.98;;;;;;;2.69;86.68;102365.75;5133366;27;20527;-69
2022/12/02 07:56:20;;;;;;;37.92;17.10;;;;;;;2.60;87.25;102363.75;5143126;27;20043;-69
2022/12/02 07:58:47;;;;;;;39.03;16.75;;;;;;;2.52;87.77;102357.47;5151923;27;20745;-69
2022/12/02 08:01:34;;;;;;;37.70;16.50;;;;;;;2.51;88.31;102357.41;5139672;27;20133;-69
2022/12/02 08:04:01;;;;;;;36.67;16.83;;;;;;;2.55;88.52;102356.66;5143291;27;20109;-70
2022/12/02 08:06:28;;;;;;;36.80;16.23;;;;;;;2.49;88.97;102349.56;5148242;27;20077;-69
2022/12/02 08:09:02;;;;;;;40.72;17.90;;;;;;;2.44;89.26;102353.78;5136874;27;20122;-69
2022/12/02 08:11:30;;;;;;;39.83;17.27;;;;;;;2.39;89.75;102366.63;5146895;27;20055;-68
2022/12/02 08:13:57;;;;;;;38.92;17.60;;;;;;;2.36;90.33;102365.66;5132682;27;20500;-68
2022/12/02 08:16:24;;;;;;;37.35;15.05;;;;;;;2.36;90.64;102360.47;5146791;27;20544;-68
2022/12/02 08:18:51;;;;;;;35.63;15.48;;;;;;;2.29;90.80;102356.84;5146147;27;20046;-67
2022/12/02 08:21:18;;;;;;;34.85;15.73;;;;;;;2.31;91.06;102365.53;5139098;27;20081;-68
2022/12/02 08:23:45;;;;;;;38.88;15.52;;;;;;;2.30;91.15;102364.66;5147016;27;20039;-68
2022/12/02 08:26:12;;;;;;;34.22;15.02;;;;;;;2.33;91.28;102361.25;5143234;27;20040;-68
2022/12/02 08:28:40;;;;;;;35.33;14.70;;;;;;;2.32;91.11;102363.00;5149078;27;20039;-69
2022/12/02 08:31:08;;;;;;;39.00;15.18;;;;;;;2.33;91.03;102361.25;5136174;27;20043;-69
2022/12/02 08:33:35;;;;;;;30.42;14.30;;;;;;;2.30;91.46;102362.06;5141878;27;20085;-69
2022/12/02 08:36:03;;;;;;;39.42;14.82;;;;;;;2.27;91.58;102363.72;5140360;27;20035;-69
2022/12/02 08:38:30;;;;;;;36.72;15.48;;;;;;;2.28;91.61;102368.06;5139419;27;20040;-70
2022/12/02 08:40:57;;;;;;;37.15;15.55;;;;;;;2.32;91.73;102362.09;5141256;27;20043;-70
2022/12/02 08:43:24;;;;;;;41.65;17.45;;;;;;;2.25;92.11;102361.03;5140171;27;20123;-70
2022/12/02 08:45:51;;;;;;;41.40;15.95;;;;;;;2.25;92.39;102362.78;5141002;27;20129;-69
2022/12/02 08:48:19;;;;;;;46.42;16.60;;;;;;;2.31;92.13;102357.72;5144424;27;20051;-70
2022/12/02 08:50:46;;;;;;;37.92;14.55;;;;;;;2.27;92.33;102359.38;5138265;27;20039;-69
2022/12/02 08:53:14;;;;;;;44.20;17.63;;;;;;;2.20;92.64;102353.94;5140248;27;20047;-70
2022/12/02 08:55:44;;;;;;;48.17;18.60;;;;;;;2.18;92.89;102361.72;5140756;27;20035;-70
2022/12/02 08:58:11;;;;;;;49.05;17.90;;;;;;;2.19;93.13;102358.28;5140423;27;20043;-70
2022/12/02 09:00:39;;;;;;;49.30;17.85;;;;;;;2.22;93.20;102349.66;5140016;27;20043;-70
2022/12/02 09:03:08;;;;;;;46.78;17.70;;;;;;;2.25;93.22;102361.03;5138146;27;20120;-70
2022/12/02 09:05:37;;;;;;;50.08;18.55;;;;;;;2.24;93.22;102358.41;5136962;27;20044;-70
2022/12/02 09:08:04;;;;;;;53.15;19.60;;;;;;;2.22;93.35;102360.97;5134111;27;20133;-70
2022/12/02 09:10:32;;;;;;;58.67;20.80;;;;;;;2.20;93.67;102360.03;5146602;27;20047;-69
2022/12/02 09:12:59;;;;;;;60.83;19.95;;;;;;;2.18;94.12;102359.09;5134373;27;20047;-68
2022/12/02 09:15:26;;;;;;;59.65;20.08;;;;;;;2.21;94.27;102356.59;5133797;27;20101;-70
2022/12/02 09:17:53;;;;;;;56.67;19.60;;;;;;;2.23;93.89;102347.13;5140352;27;20045;-68
2022/12/02 09:20:20;;;;;;;54.28;20.70;;;;;;;2.22;93.87;102349.66;5146972;27;20035;-69
2022/12/02 09:22:47;;;;;;;60.83;20.88;;;;;;;2.23;93.83;102348.84;5133565;27;20110;-69
2022/12/02 09:25:15;;;;;;;58.08;19.85;;;;;;;2.28;93.81;102357.66;5140574;27;20035;-69
2022/12/02 09:27:42;;;;;;;58.92;20.33;;;;;;;2.27;94.02;102354.16;5142586;27;20485;-69
2022/12/02 09:30:10;;;;;;;60.08;20.27;;;;;;;2.35;93.66;102349.19;5131549;27;20047;-69
2022/12/02 09:32:37;;;;;;;58.90;19.90;;;;;;;2.39;92.51;102358.81;5140862;27;20555;-69
2022/12/02 09:35:05;;;;;;;52.30;19.75;;;;;;;2.39;92.31;102358.81;5142883;27;20448;-68
2022/12/02 09:37:32;;;;;;;53.13;19.30;;;;;;;2.38;91.72;102356.19;5143995;27;20874;-69
2022/12/02 09:40:00;;;;;;;56.95;18.77;;;;;;;2.45;91.71;102347.69;5142221;27;20039;-69
2022/12/02 09:42:27;;;;;;;44.95;16.17;;;;;;;2.42;91.62;102350.25;5138608;27;20043;-69
2022/12/02 09:44:55;;;;;;;54.75;19.77;;;;;;;2.44;91.17;102341.63;5137781;27;20043;-69
2022/12/02 09:47:24;;;;;;;47.38;18.27;;;;;;;2.46;91.15;102345.16;5146791;27;20036;-70
2022/12/02 09:49:51;;;;;;;54.58;18.73;;;;;;;2.48;90.86;102338.28;5136280;27;20182;-69
2022/12/02 09:52:25;;;;;;;55.40;18.73;;;;;;;2.49;91.13;102337.41;5142003;27;20334;-69
2022/12/02 09:54:56;;;;;;;55.42;20.25;;;;;;;2.51;90.88;102334.88;5136855;27;20048;-69
2022/12/02 09:57:32;;;;;;;53.13;18.88;;;;;;;2.56;90.69;102340.19;5142386;27;20420;-69
2022/12/02 10:00:20;;;;;;;47.25;17.75;;;;;;;2.62;90.42;102335.13;5132021;27;20104;-68
2022/12/02 10:02:53;;;;;;;54.45;19.20;;;;;;;2.68;89.65;102339.63;5135741;27;20043;-69
2022/12/02 10:05:27;;;;;;;53.83;18.65;;;;;;;2.68;90.15;102332.72;5130029;27;20539;-69
2022/12/02 10:07:58;;;;;;;53.08;19.10;;;;;;;2.77;89.30;102332.06;5133474;27;20589;-69
2022/12/02 10:10:34;;;;;;;57.70;20.27;;;;;;;2.82;89.10;102326.97;5146279;27;20051;-69
2022/12/02 10:13:04;;;;;;;57.80;19.80;;;;;;;2.91;88.03;102322.88;5150061;27;20122;-69
2022/12/02 10:15:34;;;;;;;56.30;19.95;;;;;;;2.93;88.81;102333.34;5150981;27;20031;-69
2022/12/02 10:18:14;;;;;;;52.53;17.95;;;;;;;3.04;87.69;102333.63;5150494;27;20112;-69
2022/12/02 10:20:41;;;;;;;50.88;18.02;;;;;;;3.02;87.92;102330.97;5145125;27;20070;-70
2022/12/02 10:23:17;;;;;;;61.05;20.08;;;;;;;3.02;87.84;102330.97;5132971;27;20051;-69
2022/12/02 10:26:11;;;;;;;51.58;18.40;;;;;;;3.04;88.08;102329.28;5147629;27;20042;-69
2022/12/02 10:28:41;;;;;;;51.55;18.17;;;;;;;3.15;86.78;102331.28;5132124;27;20516;-69
2022/12/02 10:31:14;;;;;;;49.60;19.25;;;;;;;3.10;86.70;102339.84;5133384;27;20046;-69
2022/12/02 10:34:06;;;;;;;57.30;20.10;;;;;;;3.07;87.27;102331.06;5134468;27;20044;-69
2022/12/02 10:36:41;;;;;;;55.10;19.50;;;;;;;3.11;87.26;102323.38;5135754;27;20502;-69
2022/12/02 10:39:29;;;;;;;56.63;19.20;;;;;;;3.12;87.12;102324.25;5134754;27;20035;-69
2022/12/02 10:42:03;;;;;;;54.75;18.55;;;;;;;3.12;87.33;102321.66;5135921;27;20044;-69
2022/12/02 10:44:44;;;;;;;58.15;19.63;;;;;;;3.11;87.61;102322.50;5135184;27;20774;-68
2022/12/02 10:47:20;;;;;;;51.65;16.83;;;;;;;3.21;86.75;102315.75;5142350;27;20136;-69
2022/12/02 10:49:56;;;;;;;55.70;19.42;;;;;;;3.14;87.22;102311.25;5134303;27;20044;-69
2022/12/02 10:52:33;;;;;;;59.33;19.65;;;;;;;3.18;87.01;102315.72;5136046;27;20089;-69
2022/12/02 10:55:02;;;;;;;55.15;20.20;;;;;;;3.21;86.18;102313.16;5134611;27;20046;-69
2022/12/02 10:57:33;;;;;;;59.22;19.60;;;;;;;3.19;86.09;102314.88;5142761;27;20125;-69
2022/12/02 11:00:13;;;;;;;64.78;20.08;;;;;;;3.16;86.05;102307.84;5134625;27;20105;-69
2022/12/02 11:03:04;;;;;;;60.63;19.80;;;;;;;3.10;86.70;102311.19;5134594;27;20383;-69
2022/12/02 11:05:36;;;;;;;62.03;19.92;;;;;;;3.10;86.34;102313.78;5134281;27;20044;-69
2022/12/02 11:08:16;;;;;;;62.65;19.70;;;;;;;3.08;86.78;102307.69;5137633;27;20032;-69
2022/12/02 11:11:08;;;;;;;59.08;20.08;;;;;;;3.05;87.15;102301.50;5133871;27;20063;-69
2022/12/02 11:13:52;;;;;;;61.60;18.90;;;;;;;3.11;86.72;102302.50;5140836;27;20035;-69
2022/12/02 11:16:26;;;;;;;63.72;20.95;;;;;;;3.10;86.96;102294.69;5148681;27;20043;-69
2022/12/02 11:19:11;;;;;;;63.47;20.10;;;;;;;3.14;86.75;102303.44;5134641;27;20039;-69
2022/12/02 11:21:43;;;;;;;52.67;17.27;;;;;;;3.18;86.63;102311.38;5135402;27;20043;-69
2022/12/02 11:24:23;;;;;;;57.42;18.85;;;;;;;3.19;85.93;102302.72;5134199;27;20047;-69
2022/12/02 11:26:59;;;;;;;59.28;19.20;;;;;;;3.11;86.54;102299.03;5135070;27;20031;-69
2022/12/02 11:29:42;;;;;;;64.38;20.80;;;;;;;3.12;86.57;102300.81;5148570;27;20067;-69
2022/12/02 11:32:24;;;;;;;50.20;17.60;;;;;;;3.17;85.78;102303.53;5148975;27;20039;-69
2022/12/02 11:34:59;;;;;;;48.97;16.10;;;;;;;3.20;84.80;102304.47;5135088;27;20047;-69
2022/12/02 11:37:45;;;;;;;50.58;18.10;;;;;;;3.13;85.37;102302.56;5135080;27;20036;-69
2022/12/02 11:40:15;;;;;;;50.92;17.38;;;;;;;3.11;85.62;102302.50;5134418;27;20039;-69
2022/12/02 11:42:45;;;;;;;53.50;18.50;;;;;;;3.13;85.51;102307.78;5140572;27;20488;-69